createdAt,value
2023-04-09T00:00:49.019Z,88.60
2023-04-09T00:03:17.116Z,89.50
2023-04-09T00:05:44.560Z,87.90
2023-04-09T00:08:12.596Z,88.90
2023-04-09T00:10:40.005Z,87.90
2023-04-09T00:13:07.378Z,88.30
2023-04-09T00:15:34.703Z,89.10
2023-04-09T00:18:02.051Z,89.10
2023-04-09T00:20:29.448Z,88.80
2023-04-09T00:22:58.130Z,88.40
2023-04-09T00:25:25.864Z,88.80
2023-04-09T00:27:53.184Z,88.80
2023-04-09T00:30:20.725Z,88.60
2023-04-09T00:32:48.694Z,89.30
2023-04-09T00:35:17.543Z,89.00
2023-04-09T00:37:45.242Z,88.60
2023-04-09T00:40:12.868Z,89.40
2023-04-09T00:42:40.406Z,88.60
2023-04-09T00:45:08.476Z,88.80
2023-04-09T00:47:36.833Z,89.30
2023-04-09T00:50:04.534Z,89.90
2023-04-09T00:52:33.142Z,88.70
2023-04-09T00:55:01.519Z,89.00
2023-04-09T00:57:28.973Z,89.40
2023-04-09T00:59:56.522Z,89.00
2023-04-09T01:02:24.018Z,88.90
2023-04-09T01:04:51.680Z,89.10
2023-04-09T01:07:27.941Z,89.20
2023-04-09T01:10:26.087Z,88.30
2023-04-09T01:13:21.377Z,90.10
2023-04-09T01:15:52.844Z,90.10
2023-04-09T01:18:36.201Z,90.30
2023-04-09T01:21:09.752Z,90.40
2023-04-09T01:24:02.750Z,90.00
2023-04-09T01:27:04.058Z,90.80
2023-04-09T01:29:51.589Z,90.10
2023-04-09T01:32:21.201Z,90.50
2023-04-09T01:34:49.330Z,89.50
2023-04-09T01:37:17.921Z,89.60
2023-04-09T01:39:46.261Z,90.20
2023-04-09T01:42:16.042Z,89.50
2023-04-09T01:44:46.392Z,90.00
2023-04-09T01:47:14.108Z,90.00
2023-04-09T01:49:42.928Z,89.50
2023-04-09T01:52:10.566Z,89.20
2023-04-09T01:54:38.034Z,89.50
2023-04-09T01:57:05.734Z,89.60
2023-04-09T01:59:33.061Z,89.00
2023-04-09T02:02:04.799Z,89.40
2023-04-09T02:04:46.663Z,89.90
2023-04-09T02:07:23.613Z,90.20
2023-04-09T02:09:54.437Z,90.10
2023-04-09T02:12:23.119Z,90.10
2023-04-09T02:14:53.622Z,89.20
2023-04-09T02:17:21.441Z,90.20
2023-04-09T02:19:48.989Z,89.50
2023-04-09T02:22:17.417Z,89.10
2023-04-09T02:24:46.885Z,89.90
2023-04-09T02:27:14.217Z,90.00
2023-04-09T02:29:42.065Z,90.00
2023-04-09T02:32:09.381Z,89.10
2023-04-09T02:34:36.785Z,89.30
2023-04-09T02:37:04.136Z,90.00
2023-04-09T02:39:32.076Z,89.10
2023-04-09T02:41:59.379Z,89.40
2023-04-09T02:44:27.763Z,89.90
2023-04-09T02:46:56.416Z,89.60
2023-04-09T02:49:23.819Z,90.10
2023-04-09T02:51:51.347Z,89.10
2023-04-09T02:54:18.731Z,89.10
2023-04-09T02:56:46.057Z,89.40
2023-04-09T02:59:13.378Z,90.20
2023-04-09T03:01:40.976Z,89.50
2023-04-09T03:04:08.609Z,90.00
2023-04-09T03:06:36.023Z,89.60
2023-04-09T03:09:03.472Z,89.20
2023-04-09T03:11:31.166Z,88.90
2023-04-09T03:13:58.443Z,89.50
2023-04-09T03:16:26.560Z,89.30
2023-04-09T03:18:54.475Z,89.20
2023-04-09T03:21:21.915Z,90.00
2023-04-09T03:23:51.004Z,89.20
2023-04-09T03:26:18.356Z,90.10
2023-04-09T03:28:48.780Z,89.50
2023-04-09T03:31:17.264Z,90.00
2023-04-09T03:33:46.058Z,89.80
2023-04-09T03:36:14.006Z,89.40
2023-04-09T03:38:55.359Z,89.50
2023-04-09T03:41:30.726Z,89.40
2023-04-09T03:44:01.088Z,89.80
2023-04-09T03:46:33.826Z,90.10
2023-04-09T03:49:01.958Z,89.30
2023-04-09T03:51:38.014Z,89.50
2023-04-09T03:54:05.565Z,89.80
2023-04-09T03:56:33.925Z,89.80
2023-04-09T03:59:03.253Z,89.60
2023-04-09T04:01:37.825Z,89.50
2023-04-09T04:04:05.364Z,90.50
2023-04-09T04:06:37.548Z,89.50
2023-04-09T04:09:20.396Z,89.80
2023-04-09T04:11:53.435Z,90.00
2023-04-09T04:14:22.947Z,89.50
2023-04-09T04:16:56.133Z,89.70
2023-04-09T04:19:28.195Z,89.90
2023-04-09T04:21:56.627Z,90.20
2023-04-09T04:24:24.453Z,89.80
2023-04-09T04:26:51.964Z,90.00
2023-04-09T04:29:21.295Z,90.60
2023-04-09T04:31:55.447Z,90.60
2023-04-09T04:34:25.696Z,90.80
2023-04-09T04:37:16.030Z,90.40
2023-04-09T04:39:43.383Z,90.10
2023-04-09T04:42:14.808Z,89.70
2023-04-09T04:44:42.911Z,89.80
2023-04-09T04:47:38.115Z,89.80
2023-04-09T04:50:06.797Z,90.00
2023-04-09T04:52:43.304Z,89.80
2023-04-09T04:55:11.211Z,90.00
2023-04-09T04:57:39.170Z,89.60
2023-04-09T05:00:07.436Z,90.00
2023-04-09T05:02:35.089Z,89.80
2023-04-09T05:05:19.373Z,90.20
2023-04-09T05:07:53.870Z,89.60
2023-04-09T05:10:21.810Z,90.70
2023-04-09T05:12:49.379Z,90.70
2023-04-09T05:15:27.647Z,90.00
2023-04-09T05:17:55.270Z,89.80
2023-04-09T05:20:23.081Z,89.80
2023-04-09T05:23:01.927Z,90.00
2023-04-09T05:25:33.473Z,89.90
2023-04-09T05:28:02.686Z,89.70
2023-04-09T05:30:31.541Z,89.70
2023-04-09T05:33:02.210Z,90.00
2023-04-09T05:35:30.890Z,90.20
2023-04-09T05:37:58.930Z,89.80
2023-04-09T05:40:26.307Z,89.80
2023-04-09T05:42:54.933Z,89.70
2023-04-09T05:45:29.408Z,90.00
2023-04-09T05:47:57.169Z,89.70
2023-04-09T05:50:24.547Z,90.30
2023-04-09T05:52:54.614Z,89.80
2023-04-09T05:55:26.547Z,89.90
2023-04-09T05:57:58.861Z,90.00
2023-04-09T06:00:26.939Z,90.00
2023-04-09T06:02:54.331Z,90.10
2023-04-09T06:05:22.092Z,90.00
2023-04-09T06:07:49.431Z,89.80
2023-04-09T06:10:16.866Z,90.00
2023-04-09T06:12:44.644Z,90.00
2023-04-09T06:15:11.961Z,90.20
2023-04-09T06:17:39.389Z,90.10
2023-04-09T06:20:07.225Z,89.70
2023-04-09T06:22:34.594Z,89.60
2023-04-09T06:25:02.020Z,89.60
2023-04-09T06:27:29.392Z,89.50
2023-04-09T06:29:56.695Z,90.10
2023-04-09T06:32:24.098Z,90.00
2023-04-09T06:34:51.463Z,89.50
2023-04-09T06:37:18.810Z,89.70
2023-04-09T06:40:00.020Z,89.70
2023-04-09T06:42:28.663Z,89.50
2023-04-09T06:45:08.472Z,89.20
2023-04-09T06:47:36.386Z,89.50
2023-04-09T06:50:04.290Z,90.00
2023-04-09T06:52:31.699Z,89.20
2023-04-09T06:54:59.038Z,89.90
2023-04-09T06:57:27.215Z,89.20
2023-04-09T06:59:54.528Z,89.30
2023-04-09T07:02:22.149Z,89.50
2023-04-09T07:04:49.693Z,89.40
2023-04-09T07:07:17.083Z,89.30
2023-04-09T07:09:44.967Z,89.60
2023-04-09T07:12:12.315Z,89.70
2023-04-09T07:14:39.714Z,89.10
2023-04-09T07:17:07.000Z,90.00
2023-04-09T07:19:34.269Z,89.10
2023-04-09T07:22:01.522Z,89.10
2023-04-09T07:24:28.862Z,89.80
2023-04-09T07:26:56.316Z,89.70
2023-04-09T07:29:23.628Z,89.50
2023-04-09T07:31:51.135Z,90.10
2023-04-09T07:34:18.500Z,89.10
2023-04-09T07:36:45.796Z,89.30
2023-04-09T07:39:13.115Z,89.30
2023-04-09T07:41:40.643Z,89.90
2023-04-09T07:44:08.461Z,89.30
2023-04-09T07:46:35.974Z,89.20
2023-04-09T07:49:03.355Z,89.10
2023-04-09T07:51:31.273Z,89.10
2023-04-09T07:53:58.703Z,89.00
2023-04-09T07:56:26.036Z,89.10
2023-04-09T07:58:53.605Z,89.10
2023-04-09T08:01:24.631Z,88.80
2023-04-09T08:03:52.533Z,89.40
2023-04-09T08:06:20.275Z,88.70
2023-04-09T08:08:47.582Z,88.50
2023-04-09T08:11:14.962Z,88.50
2023-04-09T08:13:42.290Z,88.50
2023-04-09T08:16:09.729Z,88.60
2023-04-09T08:18:37.107Z,88.40
2023-04-09T08:21:05.976Z,88.00
2023-04-09T08:23:33.392Z,87.90
2023-04-09T08:26:01.104Z,87.80
2023-04-09T08:28:28.394Z,87.30
2023-04-09T08:30:56.425Z,87.50
2023-04-09T08:33:23.774Z,87.50
2023-04-09T08:35:51.021Z,87.00
2023-04-09T08:38:19.731Z,87.00
2023-04-09T08:40:47.103Z,87.00
2023-04-09T08:43:18.968Z,86.70
2023-04-09T08:45:47.438Z,86.70
2023-04-09T08:48:15.856Z,85.90
2023-04-09T08:50:43.812Z,85.40
2023-04-09T08:53:12.285Z,85.30
2023-04-09T08:55:39.864Z,85.00
2023-04-09T08:58:07.522Z,84.70
2023-04-09T09:00:34.884Z,84.10
2023-04-09T09:03:04.807Z,83.70
2023-04-09T09:05:42.419Z,83.50
2023-04-09T09:08:23.803Z,83.70
2023-04-09T09:10:51.443Z,84.20
2023-04-09T09:13:24.089Z,83.60
2023-04-09T09:16:11.442Z,82.80
2023-04-09T09:18:43.574Z,82.00
2023-04-09T09:21:16.251Z,81.70
2023-04-09T09:23:44.420Z,81.20
2023-04-09T09:26:24.605Z,81.00
2023-04-09T09:28:52.597Z,81.50
2023-04-09T09:31:21.923Z,81.70
2023-04-09T09:33:50.622Z,81.70
2023-04-09T09:36:34.538Z,81.30
2023-04-09T09:39:10.373Z,81.50
2023-04-09T09:41:38.297Z,80.90
2023-04-09T09:44:07.306Z,80.10
2023-04-09T09:46:38.514Z,79.40
2023-04-09T09:49:06.284Z,80.00
2023-04-09T09:51:37.141Z,79.70
2023-04-09T09:54:06.866Z,79.60
2023-04-09T09:56:39.605Z,79.30
2023-04-09T09:59:36.437Z,79.70
2023-04-09T10:02:16.694Z,79.10
2023-04-09T10:04:44.720Z,79.30
2023-04-09T10:07:13.843Z,79.80
2023-04-09T10:09:45.830Z,79.80
2023-04-09T10:12:13.629Z,79.60
2023-04-09T10:14:42.751Z,79.10
2023-04-09T10:17:10.463Z,78.90
2023-04-09T10:19:54.697Z,78.40
2023-04-09T10:22:26.647Z,77.80
2023-04-09T10:24:55.728Z,78.30
2023-04-09T10:27:23.095Z,77.00
2023-04-09T10:29:52.088Z,77.50
2023-04-09T10:32:21.776Z,77.10
2023-04-09T10:34:50.672Z,77.80
2023-04-09T10:37:28.493Z,77.90
2023-04-09T10:39:57.878Z,76.80
2023-04-09T10:42:37.152Z,76.40
2023-04-09T10:45:08.958Z,77.60
2023-04-09T10:47:38.863Z,77.90
2023-04-09T10:50:32.493Z,77.00
2023-04-09T10:53:00.740Z,76.60
2023-04-09T10:55:38.335Z,77.20
2023-04-09T10:58:12.662Z,77.30
2023-04-09T11:00:45.857Z,76.60
2023-04-09T11:03:24.534Z,75.70
2023-04-09T11:06:05.953Z,75.70
2023-04-09T11:08:34.219Z,75.50
2023-04-09T11:11:02.307Z,75.00
2023-04-09T11:13:31.298Z,74.40
2023-04-09T11:16:01.177Z,74.00
2023-04-09T11:18:30.713Z,74.00
2023-04-09T11:21:05.969Z,74.30
2023-04-09T11:23:34.726Z,74.20
2023-04-09T11:26:02.715Z,74.20
2023-04-09T11:28:30.235Z,74.30
2023-04-09T11:30:57.555Z,75.80
2023-04-09T11:33:33.212Z,74.40
2023-04-09T11:36:01.738Z,74.30
2023-04-09T11:38:31.677Z,74.40
2023-04-09T11:40:59.035Z,74.10
2023-04-09T11:43:26.340Z,74.20
2023-04-09T11:45:54.205Z,73.90
2023-04-09T11:48:24.804Z,73.90
2023-04-09T11:50:52.671Z,73.80
2023-04-09T11:53:24.445Z,73.50
2023-04-09T11:55:53.499Z,72.80
2023-04-09T11:58:26.245Z,72.50
2023-04-09T12:00:59.095Z,71.70
2023-04-09T12:03:34.218Z,70.80
2023-04-09T12:06:02.796Z,71.00
2023-04-09T12:08:31.324Z,71.30
2023-04-09T12:11:09.226Z,71.40
2023-04-09T12:13:36.592Z,70.80
2023-04-09T12:16:04.144Z,71.00
2023-04-09T12:18:31.580Z,71.70
2023-04-09T12:21:01.088Z,71.60
2023-04-09T12:23:28.430Z,71.50
2023-04-09T12:25:55.772Z,70.70
2023-04-09T12:28:23.093Z,70.20
2023-04-09T12:30:51.216Z,69.90
2023-04-09T12:33:18.831Z,69.90
2023-04-09T12:35:46.450Z,70.10
2023-04-09T12:38:13.806Z,70.20
2023-04-09T12:40:41.330Z,70.30
2023-04-09T12:43:08.616Z,70.40
2023-04-09T12:45:36.695Z,70.50
2023-04-09T12:48:04.204Z,70.70
2023-04-09T12:50:31.492Z,70.30
2023-04-09T12:52:58.751Z,69.90
2023-04-09T12:55:26.144Z,69.40
2023-04-09T12:57:53.442Z,69.70
2023-04-09T13:00:20.824Z,69.00
2023-04-09T13:02:48.361Z,68.60
2023-04-09T13:05:15.757Z,68.30
2023-04-09T13:07:43.563Z,68.00
2023-04-09T13:10:11.140Z,67.50
2023-04-09T13:12:38.489Z,67.80
2023-04-09T13:15:06.661Z,68.20
2023-04-09T13:17:34.206Z,68.10
2023-04-09T13:20:01.848Z,68.60
2023-04-09T13:22:29.306Z,68.30
2023-04-09T13:24:57.317Z,68.20
2023-04-09T13:27:24.658Z,67.50
2023-04-09T13:29:52.094Z,67.20
2023-04-09T13:32:22.129Z,66.70
2023-04-09T13:34:49.826Z,66.00
2023-04-09T13:37:17.247Z,65.70
2023-04-09T13:39:44.884Z,65.30
2023-04-09T13:42:13.937Z,64.30
2023-04-09T13:44:44.645Z,64.20
2023-04-09T13:47:13.488Z,64.40
2023-04-09T13:49:41.305Z,64.30
2023-04-09T13:52:09.439Z,64.60
2023-04-09T13:54:36.925Z,64.70
2023-04-09T13:57:04.239Z,64.90
2023-04-09T13:59:31.594Z,64.70
2023-04-09T14:01:58.907Z,64.20
2023-04-09T14:04:26.619Z,64.70
2023-04-09T14:06:53.956Z,64.00
2023-04-09T14:09:21.223Z,63.80
2023-04-09T14:11:49.408Z,64.40
2023-04-09T14:14:17.634Z,64.40
2023-04-09T14:16:46.151Z,64.30
2023-04-09T14:19:13.474Z,64.60
2023-04-09T14:21:41.092Z,64.70
2023-04-09T14:24:08.486Z,64.50
2023-04-09T14:26:35.819Z,64.40
2023-04-09T14:29:03.415Z,64.50
2023-04-09T14:31:30.911Z,63.80
2023-04-09T14:33:58.246Z,63.80
2023-04-09T14:36:27.008Z,63.60
2023-04-09T14:38:56.251Z,63.70
2023-04-09T14:41:25.179Z,63.20
2023-04-09T14:43:52.484Z,62.90
2023-04-09T14:46:20.290Z,63.30
2023-04-09T14:48:47.736Z,63.50
2023-04-09T14:51:15.135Z,63.10
2023-04-09T14:53:42.591Z,63.10
2023-04-09T14:56:09.884Z,63.30
2023-04-09T14:58:37.382Z,63.20
2023-04-09T15:01:05.037Z,63.20
2023-04-09T15:03:32.499Z,62.50
2023-04-09T15:06:00.046Z,62.00
2023-04-09T15:08:27.461Z,61.90
2023-04-09T15:10:54.932Z,61.70
2023-04-09T15:13:22.342Z,61.70
2023-04-09T15:15:49.775Z,61.70
2023-04-09T15:18:17.239Z,61.80
2023-04-09T15:20:44.592Z,61.60
2023-04-09T15:23:12.090Z,61.70
2023-04-09T15:25:39.570Z,61.90
2023-04-09T15:28:07.086Z,61.60
2023-04-09T15:30:35.740Z,61.50
2023-04-09T15:33:04.431Z,61.10
2023-04-09T15:35:31.998Z,61.00
2023-04-09T15:37:59.384Z,61.10
2023-04-09T15:40:28.673Z,61.40
2023-04-09T15:42:56.019Z,61.60
2023-04-09T15:45:23.278Z,61.50
2023-04-09T15:47:50.624Z,61.20
2023-04-09T15:50:17.994Z,61.10
2023-04-09T15:52:45.269Z,61.20
2023-04-09T15:55:12.647Z,61.30
2023-04-09T15:57:40.091Z,61.20
2023-04-09T16:00:10.783Z,61.20
2023-04-09T16:02:41.431Z,60.90
2023-04-09T16:05:08.939Z,60.80
2023-04-09T16:07:36.709Z,61.00
2023-04-09T16:10:04.684Z,60.90
2023-04-09T16:12:32.118Z,60.70
2023-04-09T16:14:59.560Z,60.50
2023-04-09T16:17:26.860Z,60.50
2023-04-09T16:19:54.252Z,60.70
2023-04-09T16:22:21.549Z,60.80
2023-04-09T16:24:50.148Z,60.80
2023-04-09T16:27:17.720Z,60.90
2023-04-09T16:29:46.198Z,61.00
2023-04-09T16:32:13.685Z,61.00
2023-04-09T16:34:41.145Z,61.10
2023-04-09T16:37:08.544Z,60.90
2023-04-09T16:39:35.896Z,60.90
2023-04-09T16:42:03.290Z,60.90
2023-04-09T16:44:30.871Z,60.80
2023-04-09T16:46:58.142Z,61.00
2023-04-09T16:49:25.561Z,61.00
2023-04-09T16:51:54.013Z,60.90
2023-04-09T16:54:21.396Z,60.90
2023-04-09T16:56:48.826Z,61.10
2023-04-09T16:59:18.415Z,61.20
2023-04-09T17:01:46.361Z,61.10
2023-04-09T17:04:13.766Z,61.40
2023-04-09T17:06:41.066Z,61.40
2023-04-09T17:09:08.439Z,61.50
2023-04-09T17:11:37.894Z,61.60
2023-04-09T17:14:05.827Z,61.80
2023-04-09T17:16:33.449Z,61.90
2023-04-09T17:19:00.859Z,61.90
2023-04-09T17:21:28.265Z,62.10
2023-04-09T17:23:55.961Z,62.20
2023-04-09T17:26:24.718Z,62.40
2023-04-09T17:28:52.674Z,62.40
2023-04-09T17:31:24.070Z,62.40
2023-04-09T17:33:52.237Z,62.50
2023-04-09T17:36:21.062Z,62.70
2023-04-09T17:38:49.812Z,62.70
2023-04-09T17:41:17.311Z,62.90
2023-04-09T17:43:44.663Z,63.20
2023-04-09T17:46:12.187Z,63.70
2023-04-09T17:48:39.985Z,64.30
2023-04-09T17:51:07.587Z,63.90
2023-04-09T17:53:34.937Z,63.70
2023-04-09T17:56:04.073Z,63.70
2023-04-09T17:58:31.830Z,63.80
2023-04-09T18:00:59.628Z,64.20
2023-04-09T18:03:27.165Z,64.10
2023-04-09T18:05:54.861Z,64.00
2023-04-09T18:08:22.315Z,64.00
2023-04-09T18:11:04.972Z,64.20
2023-04-09T18:13:38.700Z,64.30
2023-04-09T18:17:11.099Z,64.70
2023-04-09T18:19:38.710Z,64.60
2023-04-09T18:22:05.991Z,65.00
2023-04-09T18:24:34.412Z,65.00
2023-04-09T18:27:04.493Z,65.20
2023-04-09T18:29:32.006Z,65.30
2023-04-09T18:31:59.536Z,65.30
2023-04-09T18:34:27.061Z,65.70
2023-04-09T18:36:54.687Z,65.60
2023-04-09T18:39:23.227Z,65.80
2023-04-09T18:41:50.546Z,66.00
2023-04-09T18:44:17.981Z,66.00
2023-04-09T18:46:45.494Z,67.20
2023-04-09T18:49:12.841Z,66.40
2023-04-09T18:51:40.366Z,66.50
2023-04-09T18:54:07.743Z,66.40
2023-04-09T18:56:35.012Z,66.60
2023-04-09T18:59:02.567Z,66.80
2023-04-09T19:01:29.915Z,66.90
2023-04-09T19:03:57.355Z,66.90
2023-04-09T19:06:25.580Z,67.20
2023-04-09T19:08:57.935Z,66.80
2023-04-09T19:11:26.032Z,66.90
2023-04-09T19:13:53.569Z,67.10
2023-04-09T19:16:21.528Z,67.30
2023-04-09T19:18:49.000Z,67.30
2023-04-09T19:21:17.920Z,67.70
2023-04-09T19:23:45.795Z,67.50
2023-04-09T19:26:13.176Z,67.70
2023-04-09T19:28:40.879Z,68.10
2023-04-09T19:31:08.376Z,68.00
2023-04-09T19:33:36.167Z,68.20
2023-04-09T19:36:04.289Z,67.90
2023-04-09T19:38:31.643Z,68.20
2023-04-09T19:40:59.058Z,68.10
2023-04-09T19:43:26.513Z,68.30
2023-04-09T19:45:54.450Z,68.30
2023-04-09T19:48:21.857Z,68.40
2023-04-09T19:50:49.398Z,68.50
2023-04-09T19:57:48.955Z,69.00
2023-04-09T20:04:48.026Z,69.30
2023-04-09T20:07:15.726Z,69.00
2023-04-09T20:09:43.491Z,68.70
2023-04-09T20:12:11.031Z,69.10
2023-04-09T20:14:39.371Z,68.90
2023-04-09T20:17:08.844Z,70.30
2023-04-09T20:19:37.765Z,69.60
2023-04-09T20:22:05.329Z,69.40
2023-04-09T20:24:33.731Z,69.70
2023-04-09T20:27:01.579Z,69.80
2023-04-09T20:29:28.915Z,69.40
2023-04-09T20:31:56.596Z,69.50
2023-04-09T20:34:26.867Z,69.50
2023-04-09T20:36:57.615Z,69.50
2023-04-09T20:39:26.906Z,70.20
2023-04-09T20:41:56.518Z,69.70
2023-04-09T20:44:24.483Z,70.50
2023-04-09T20:46:51.952Z,69.70
2023-04-09T20:49:19.327Z,69.90
2023-04-09T20:51:46.734Z,70.10
2023-04-09T20:54:14.073Z,70.40
2023-04-09T20:56:41.566Z,69.90
2023-04-09T20:59:08.853Z,70.00
2023-04-09T21:01:36.375Z,70.10
2023-04-09T21:04:04.014Z,70.20
2023-04-09T21:06:31.738Z,70.10
2023-04-09T21:08:59.852Z,70.10
2023-04-09T21:11:27.362Z,70.10
2023-04-09T21:13:55.589Z,70.20
2023-04-09T21:16:23.399Z,70.30
2023-04-09T21:18:51.502Z,70.60
2023-04-09T21:21:19.190Z,70.20
2023-04-09T21:23:46.517Z,70.70
2023-04-09T21:26:14.999Z,70.60
2023-04-09T21:28:42.993Z,70.70
2023-04-09T21:31:11.343Z,70.30
2023-04-09T21:33:41.542Z,70.80
2023-04-09T21:36:09.026Z,70.30
2023-04-09T21:38:36.491Z,70.60
2023-04-09T21:41:04.033Z,70.70
2023-04-09T21:43:31.357Z,70.60
2023-04-09T21:45:58.922Z,70.70
2023-04-09T21:48:30.637Z,71.20
2023-04-09T21:50:58.514Z,70.50
2023-04-09T21:53:27.099Z,71.10
2023-04-09T21:55:54.472Z,72.00
2023-04-09T21:58:21.895Z,70.90
2023-04-09T22:00:49.248Z,71.20
2023-04-09T22:03:16.662Z,71.30
2023-04-09T22:05:44.194Z,71.60
2023-04-09T22:08:13.094Z,71.40
2023-04-09T22:10:40.531Z,71.40
2023-04-09T22:13:08.063Z,71.50
2023-04-09T22:15:35.470Z,72.10
2023-04-09T22:18:02.915Z,71.80
2023-04-09T22:20:30.525Z,72.20
2023-04-09T22:22:57.867Z,72.20
2023-04-09T22:25:25.439Z,71.80
2023-04-09T22:27:53.560Z,73.10
2023-04-09T22:30:21.836Z,72.30
2023-04-09T22:32:49.973Z,72.00
2023-04-09T22:35:18.334Z,72.40
2023-04-09T22:37:46.939Z,72.20
2023-04-09T22:40:16.063Z,72.40
2023-04-09T22:42:46.368Z,72.90
2023-04-09T22:45:13.947Z,73.30
2023-04-09T22:47:41.676Z,72.40
2023-04-09T22:50:09.575Z,72.40
2023-04-09T22:52:37.244Z,72.70
2023-04-09T22:55:06.577Z,72.60
2023-04-09T22:57:34.007Z,72.80
2023-04-09T23:00:01.744Z,72.80
2023-04-09T23:02:29.570Z,72.60
2023-04-09T23:04:57.369Z,73.20
2023-04-09T23:07:24.970Z,72.90
2023-04-09T23:09:54.817Z,73.00
2023-04-09T23:12:22.341Z,73.10
2023-04-09T23:14:53.376Z,74.70
2023-04-09T23:17:22.812Z,73.50
2023-04-09T23:19:52.346Z,74.10
2023-04-09T23:22:19.712Z,73.60
2023-04-09T23:24:46.995Z,73.40
2023-04-09T23:27:14.753Z,73.50
2023-04-09T23:29:42.007Z,74.10
2023-04-09T23:32:09.524Z,73.50
2023-04-09T23:34:37.261Z,73.30
2023-04-09T23:37:04.545Z,73.60
2023-04-09T23:39:34.700Z,74.00
2023-04-09T23:42:02.344Z,73.20
2023-04-09T23:44:29.721Z,73.80
2023-04-09T23:46:58.424Z,73.60
2023-04-09T23:49:29.215Z,73.50
2023-04-09T23:51:59.397Z,75.10
2023-04-09T23:54:27.112Z,73.50
2023-04-09T23:56:57.970Z,75.10
2023-04-09T23:59:25.911Z,74.30
